sensor_id;sensor_type;location;lat;lon;timestamp;temperature;humidity
5639;DHT22;2841;44.526;11.360;2023-01-28T09:31:07;6.00;99.90
5639;DHT22;2841;44.526;11.360;2023-01-28T09:33:35;6.40;99.90
5639;DHT22;2841;44.526;11.360;2023-01-28T09:36:02;6.50;99.90
5639;DHT22;2841;44.526;11.360;2023-01-28T09:38:30;6.70;99.90
5639;DHT22;2841;44.526;11.360;2023-01-28T09:40:57;6.90;99.90
5639;DHT22;2841;44.526;11.360;2023-01-28T09:43:32;7.10;99.90
5639;DHT22;2841;44.526;11.360;2023-01-28T09:46:02;7.10;99.90
5639;DHT22;2841;44.526;11.360;2023-01-28T09:48:31;6.90;99.90
5639;DHT22;2841;44.526;11.360;2023-01-28T09:51:02;6.60;99.90
5639;DHT22;2841;44.526;11.360;2023-01-28T09:53:34;6.40;99.90
5639;DHT22;2841;44.526;11.360;2023-01-28T09:56:05;6.50;99.90
5639;DHT22;2841;44.526;11.360;2023-01-28T09:58:33;6.80;99.90
5639;DHT22;2841;44.526;11.360;2023-01-28T10:01:01;7.00;99.90
5639;DHT22;2841;44.526;11.360;2023-01-28T10:03:35;7.20;99.90
5639;DHT22;2841;44.526;11.360;2023-01-28T10:06:07;7.30;99.90
5639;DHT22;2841;44.526;11.360;2023-01-28T10:08:40;7.30;99.90
5639;DHT22;2841;44.526;11.360;2023-01-28T10:11:11;7.30;99.90
5639;DHT22;2841;44.526;11.360;2023-01-28T10:13:41;7.20;99.90
5639;DHT22;2841;44.526;11.360;2023-01-28T10:16:15;7.40;99.90
5639;DHT22;2841;44.526;11.360;2023-01-28T10:18:47;7.60;99.90
5639;DHT22;2841;44.526;11.360;2023-01-28T10:21:16;7.70;99.90
5639;DHT22;2841;44.526;11.360;2023-01-28T10:23:48;7.70;99.90
5639;DHT22;2841;44.526;11.360;2023-01-28T10:26:20;7.70;99.90
5639;DHT22;2841;44.526;11.360;2023-01-28T10:28:48;7.80;99.90
5639;DHT22;2841;44.526;11.360;2023-01-28T10:31:17;7.90;99.90
5639;DHT22;2841;44.526;11.360;2023-01-28T10:33:46;8.00;99.90
5639;DHT22;2841;44.526;11.360;2023-01-28T10:36:12;8.20;99.90
5639;DHT22;2841;44.526;11.360;2023-01-28T10:38:40;8.20;99.10
5639;DHT22;2841;44.526;11.360;2023-01-28T10:41:08;7.80;97.00
5639;DHT22;2841;44.526;11.360;2023-01-28T10:43:36;7.40;97.90
5639;DHT22;2841;44.526;11.360;2023-01-28T10:46:04;7.20;99.40
5639;DHT22;2841;44.526;11.360;2023-01-28T10:48:32;7.10;99.90
5639;DHT22;2841;44.526;11.360;2023-01-28T10:51:03;6.80;98.70
5639;DHT22;2841;44.526;11.360;2023-01-28T10:53:34;6.60;99.90
5639;DHT22;2841;44.526;11.360;2023-01-28T10:56:02;6.60;99.90
5639;DHT22;2841;44.526;11.360;2023-01-28T10:58:30;6.60;99.90
5639;DHT22;2841;44.526;11.360;2023-01-28T11:00:58;6.70;99.90
5639;DHT22;2841;44.526;11.360;2023-01-28T11:03:25;6.90;99.90
5639;DHT22;2841;44.526;11.360;2023-01-28T11:05:54;7.10;99.90
5639;DHT22;2841;44.526;11.360;2023-01-28T11:08:22;7.10;99.90
5639;DHT22;2841;44.526;11.360;2023-01-28T11:10:50;7.10;99.90
5639;DHT22;2841;44.526;11.360;2023-01-28T11:13:18;7.00;99.50
5639;DHT22;2841;44.526;11.360;2023-01-28T11:15:46;6.90;99.70
5639;DHT22;2841;44.526;11.360;2023-01-28T11:18:14;6.90;99.60
5639;DHT22;2841;44.526;11.360;2023-01-28T11:20:48;7.00;99.90
5639;DHT22;2841;44.526;11.360;2023-01-28T11:23:17;7.10;99.40
5639;DHT22;2841;44.526;11.360;2023-01-28T11:25:45;7.00;98.80
5639;DHT22;2841;44.526;11.360;2023-01-28T11:28:14;7.00;99.60
5639;DHT22;2841;44.526;11.360;2023-01-28T11:30:43;7.30;99.90
5639;DHT22;2841;44.526;11.360;2023-01-28T11:33:15;7.40;98.60
5639;DHT22;2841;44.526;11.360;2023-01-28T11:35:51;7.30;97.70
5639;DHT22;2841;44.526;11.360;2023-01-28T11:38:19;7.40;97.60
5639;DHT22;2841;44.526;11.360;2023-01-28T11:40:51;7.40;96.90
5639;DHT22;2841;44.526;11.360;2023-01-28T11:43:18;7.30;96.80
5639;DHT22;2841;44.526;11.360;2023-01-28T11:45:47;7.20;96.10
5639;DHT22;2841;44.526;11.360;2023-01-28T11:48:18;7.20;96.00
5639;DHT22;2841;44.526;11.360;2023-01-28T11:50:49;7.30;95.80
5639;DHT22;2841;44.526;11.360;2023-01-28T11:53:26;7.50;96.00
5639;DHT22;2841;44.526;11.360;2023-01-28T11:56:08;7.80;95.90
5639;DHT22;2841;44.526;11.360;2023-01-28T11:58:40;7.80;95.10
5639;DHT22;2841;44.526;11.360;2023-01-28T12:01:13;7.70;95.10
5639;DHT22;2841;44.526;11.360;2023-01-28T12:03:45;7.60;95.40
5639;DHT22;2841;44.526;11.360;2023-01-28T12:06:19;7.40;95.10
5639;DHT22;2841;44.526;11.360;2023-01-28T12:08:48;7.30;95.10
5639;DHT22;2841;44.526;11.360;2023-01-28T12:11:23;7.20;95.20
5639;DHT22;2841;44.526;11.360;2023-01-28T12:14:15;7.10;95.90
5639;DHT22;2841;44.526;11.360;2023-01-28T12:16:48;7.10;96.20
5639;DHT22;2841;44.526;11.360;2023-01-28T12:19:23;7.10;96.30
5639;DHT22;2841;44.526;11.360;2023-01-28T12:22:00;7.20;95.80
5639;DHT22;2841;44.526;11.360;2023-01-28T12:24:36;7.10;95.60
5639;DHT22;2841;44.526;11.360;2023-01-28T12:27:10;7.10;95.70
5639;DHT22;2841;44.526;11.360;2023-01-28T12:29:40;7.20;96.10
5639;DHT22;2841;44.526;11.360;2023-01-28T12:32:14;7.20;94.70
5639;DHT22;2841;44.526;11.360;2023-01-28T12:34:54;7.50;95.10
5639;DHT22;2841;44.526;11.360;2023-01-28T12:37:25;7.90;94.10
5639;DHT22;2841;44.526;11.360;2023-01-28T12:39:59;8.40;93.60
5639;DHT22;2841;44.526;11.360;2023-01-28T12:42:33;8.90;92.60
5639;DHT22;2841;44.526;11.360;2023-01-28T12:45:02;9.30;92.00
5639;DHT22;2841;44.526;11.360;2023-01-28T12:47:30;9.60;90.70
5639;DHT22;2841;44.526;11.360;2023-01-28T12:50:01;9.70;90.50
5639;DHT22;2841;44.526;11.360;2023-01-28T12:52:29;9.80;90.50
5639;DHT22;2841;44.526;11.360;2023-01-28T12:54:58;9.90;90.60
5639;DHT22;2841;44.526;11.360;2023-01-28T12:57:27;10.10;90.00
5639;DHT22;2841;44.526;11.360;2023-01-28T12:59:57;9.90;87.90
5639;DHT22;2841;44.526;11.360;2023-01-28T13:02:28;9.60;88.20
5639;DHT22;2841;44.526;11.360;2023-01-28T13:04:59;9.60;88.80
5639;DHT22;2841;44.526;11.360;2023-01-28T13:07:29;9.60;88.40
5639;DHT22;2841;44.526;11.360;2023-01-28T13:09:59;9.90;87.70
5639;DHT22;2841;44.526;11.360;2023-01-28T13:12:29;10.00;85.70
5639;DHT22;2841;44.526;11.360;2023-01-28T13:14:58;10.10;84.40
5639;DHT22;2841;44.526;11.360;2023-01-28T13:17:25;10.70;83.70
5639;DHT22;2841;44.526;11.360;2023-01-28T13:19:53;10.70;81.60
5639;DHT22;2841;44.526;11.360;2023-01-28T13:22:27;11.00;81.20
5639;DHT22;2841;44.526;11.360;2023-01-28T13:24:54;11.00;79.10
5639;DHT22;2841;44.526;11.360;2023-01-28T13:27:21;10.90;81.30
5639;DHT22;2841;44.526;11.360;2023-01-28T13:29:58;11.00;79.60
5639;DHT22;2841;44.526;11.360;2023-01-28T13:32:31;11.00;78.70
5639;DHT22;2841;44.526;11.360;2023-01-28T13:34:59;11.20;80.60
5639;DHT22;2841;44.526;11.360;2023-01-28T13:37:27;11.90;80.70
5639;DHT22;2841;44.526;11.360;2023-01-28T13:39:57;12.10;77.40
5639;DHT22;2841;44.526;11.360;2023-01-28T13:42:26;11.70;78.50
5639;DHT22;2841;44.526;11.360;2023-01-28T13:44:53;11.70;79.80
5639;DHT22;2841;44.526;11.360;2023-01-28T13:47:21;12.20;79.00
5639;DHT22;2841;44.526;11.360;2023-01-28T13:49:52;12.50;77.90
5639;DHT22;2841;44.526;11.360;2023-01-28T13:52:22;13.00;77.00
5639;DHT22;2841;44.526;11.360;2023-01-28T13:54:50;14.30;74.60
5639;DHT22;2841;44.526;11.360;2023-01-28T13:57:26;14.60;71.40
5639;DHT22;2841;44.526;11.360;2023-01-28T14:00:00;14.80;72.00
5639;DHT22;2841;44.526;11.360;2023-01-28T14:05:21;14.60;70.00
5639;DHT22;2841;44.526;11.360;2023-01-28T14:08:00;14.00;71.20
5639;DHT22;2841;44.526;11.360;2023-01-28T14:10:33;14.30;71.50
5639;DHT22;2841;44.526;11.360;2023-01-28T14:13:22;14.70;71.40
5639;DHT22;2841;44.526;11.360;2023-01-28T14:15:56;15.60;70.40
5639;DHT22;2841;44.526;11.360;2023-01-28T14:18:25;16.50;66.60
5639;DHT22;2841;44.526;11.360;2023-01-28T14:20:54;15.50;68.20
5639;DHT22;2841;44.526;11.360;2023-01-28T14:23:22;15.50;70.00
5639;DHT22;2841;44.526;11.360;2023-01-28T14:25:55;16.30;69.10
5639;DHT22;2841;44.526;11.360;2023-01-28T14:28:26;16.60;68.00
5639;DHT22;2841;44.526;11.360;2023-01-28T14:30:56;16.90;68.60
5639;DHT22;2841;44.526;11.360;2023-01-28T14:33:25;16.50;68.00
5639;DHT22;2841;44.526;11.360;2023-01-28T14:35:54;16.30;67.00
5639;DHT22;2841;44.526;11.360;2023-01-28T14:38:22;15.00;66.80
5639;DHT22;2841;44.526;11.360;2023-01-28T14:40:49;13.90;70.00
5639;DHT22;2841;44.526;11.360;2023-01-28T14:43:18;13.10;70.50
5639;DHT22;2841;44.526;11.360;2023-01-28T14:45:51;12.60;70.60
5639;DHT22;2841;44.526;11.360;2023-01-28T14:48:23;12.50;69.90
5639;DHT22;2841;44.526;11.360;2023-01-28T14:50:56;13.10;69.20
5639;DHT22;2841;44.526;11.360;2023-01-28T14:56:12;14.10;67.50
5639;DHT22;2841;44.526;11.360;2023-01-28T14:58:43;13.80;68.80
5639;DHT22;2841;44.526;11.360;2023-01-28T15:01:18;13.70;69.60
5639;DHT22;2841;44.526;11.360;2023-01-28T15:03:45;13.60;69.50
5639;DHT22;2841;44.526;11.360;2023-01-28T15:06:14;13.60;68.40
5639;DHT22;2841;44.526;11.360;2023-01-28T15:08:41;13.80;68.30
5639;DHT22;2841;44.526;11.360;2023-01-28T15:11:09;13.60;67.50
5639;DHT22;2841;44.526;11.360;2023-01-28T15:13:37;13.30;67.80
5639;DHT22;2841;44.526;11.360;2023-01-28T15:16:04;12.80;67.70
5639;DHT22;2841;44.526;11.360;2023-01-28T15:18:33;12.70;68.60
5639;DHT22;2841;44.526;11.360;2023-01-28T15:21:00;13.00;68.60
5639;DHT22;2841;44.526;11.360;2023-01-28T15:23:30;13.10;67.70
5639;DHT22;2841;44.526;11.360;2023-01-28T15:25:58;13.30;67.80
5639;DHT22;2841;44.526;11.360;2023-01-28T15:28:25;13.40;67.70
5639;DHT22;2841;44.526;11.360;2023-01-28T15:30:53;13.50;66.90
5639;DHT22;2841;44.526;11.360;2023-01-28T15:33:20;13.50;67.40
5639;DHT22;2841;44.526;11.360;2023-01-28T15:35:47;12.90;67.40
5639;DHT22;2841;44.526;11.360;2023-01-28T15:38:14;12.20;67.80
5639;DHT22;2841;44.526;11.360;2023-01-28T15:40:44;11.30;68.10
5639;DHT22;2841;44.526;11.360;2023-01-28T15:43:14;10.50;68.80
5639;DHT22;2841;44.526;11.360;2023-01-28T15:45:43;9.80;70.30
5639;DHT22;2841;44.526;11.360;2023-01-28T15:48:12;9.20;70.80
5639;DHT22;2841;44.526;11.360;2023-01-28T15:50:40;8.90;71.30
5639;DHT22;2841;44.526;11.360;2023-01-28T15:53:09;8.60;71.40
5639;DHT22;2841;44.526;11.360;2023-01-28T15:55:37;8.40;71.50
5639;DHT22;2841;44.526;11.360;2023-01-28T15:58:13;8.10;71.50
5639;DHT22;2841;44.526;11.360;2023-01-28T16:00:41;7.90;71.60
5639;DHT22;2841;44.526;11.360;2023-01-28T16:03:08;7.80;71.90
5639;DHT22;2841;44.526;11.360;2023-01-28T16:05:36;7.70;71.80
5639;DHT22;2841;44.526;11.360;2023-01-28T16:08:06;7.60;71.80
5639;DHT22;2841;44.526;11.360;2023-01-28T16:10:34;7.50;71.80
5639;DHT22;2841;44.526;11.360;2023-01-28T16:13:03;7.40;71.80
5639;DHT22;2841;44.526;11.360;2023-01-28T16:15:31;7.30;71.80
5639;DHT22;2841;44.526;11.360;2023-01-28T16:17:59;7.30;72.10
5639;DHT22;2841;44.526;11.360;2023-01-28T16:20:26;7.30;72.10
5639;DHT22;2841;44.526;11.360;2023-01-28T16:22:54;7.30;72.20
5639;DHT22;2841;44.526;11.360;2023-01-28T16:25:23;7.20;72.10
5639;DHT22;2841;44.526;11.360;2023-01-28T16:27:50;7.20;72.10
5639;DHT22;2841;44.526;11.360;2023-01-28T16:30:18;7.20;72.10
5639;DHT22;2841;44.526;11.360;2023-01-28T16:32:46;7.10;72.10
5639;DHT22;2841;44.526;11.360;2023-01-28T16:35:14;7.20;72.50
5639;DHT22;2841;44.526;11.360;2023-01-28T16:37:42;7.20;72.40
5639;DHT22;2841;44.526;11.360;2023-01-28T16:40:10;7.30;73.10
5639;DHT22;2841;44.526;11.360;2023-01-28T16:42:37;7.30;72.60
5639;DHT22;2841;44.526;11.360;2023-01-28T16:45:04;7.30;72.50
5639;DHT22;2841;44.526;11.360;2023-01-28T16:47:31;7.30;72.50
5639;DHT22;2841;44.526;11.360;2023-01-28T16:49:59;7.30;72.50
5639;DHT22;2841;44.526;11.360;2023-01-28T16:52:26;7.20;72.50
5639;DHT22;2841;44.526;11.360;2023-01-28T16:54:52;7.10;72.60
5639;DHT22;2841;44.526;11.360;2023-01-28T16:57:19;7.10;72.70
5639;DHT22;2841;44.526;11.360;2023-01-28T16:59:47;7.00;72.70
5639;DHT22;2841;44.526;11.360;2023-01-28T17:02:14;7.00;72.80
5639;DHT22;2841;44.526;11.360;2023-01-28T17:04:41;6.90;72.80
5639;DHT22;2841;44.526;11.360;2023-01-28T17:07:10;6.70;72.80
5639;DHT22;2841;44.526;11.360;2023-01-28T17:09:36;6.70;72.90
5639;DHT22;2841;44.526;11.360;2023-01-28T17:12:03;6.60;72.90
5639;DHT22;2841;44.526;11.360;2023-01-28T17:14:30;6.40;72.90
5639;DHT22;2841;44.526;11.360;2023-01-28T17:16:57;6.40;73.10
5639;DHT22;2841;44.526;11.360;2023-01-28T17:19:25;6.30;73.10
5639;DHT22;2841;44.526;11.360;2023-01-28T17:21:51;6.20;73.20
5639;DHT22;2841;44.526;11.360;2023-01-28T17:24:20;6.10;73.30
5639;DHT22;2841;44.526;11.360;2023-01-28T17:26:46;6.10;73.30
5639;DHT22;2841;44.526;11.360;2023-01-28T17:29:16;6.00;73.40
5639;DHT22;2841;44.526;11.360;2023-01-28T17:31:44;6.00;73.40
5639;DHT22;2841;44.526;11.360;2023-01-28T17:34:12;5.90;74.10
5639;DHT22;2841;44.526;11.360;2023-01-28T17:36:39;5.90;73.60
5639;DHT22;2841;44.526;11.360;2023-01-28T17:39:06;5.90;73.70
5639;DHT22;2841;44.526;11.360;2023-01-28T17:41:34;5.90;73.70
5639;DHT22;2841;44.526;11.360;2023-01-28T17:44:01;5.90;73.70
5639;DHT22;2841;44.526;11.360;2023-01-28T17:46:29;5.90;73.80
5639;DHT22;2841;44.526;11.360;2023-01-28T17:48:55;5.90;73.80
5639;DHT22;2841;44.526;11.360;2023-01-28T17:51:22;5.80;73.80
5639;DHT22;2841;44.526;11.360;2023-01-28T17:53:49;5.80;73.90
5639;DHT22;2841;44.526;11.360;2023-01-28T17:56:17;5.80;73.90
5639;DHT22;2841;44.526;11.360;2023-01-28T17:58:49;5.80;74.00
5639;DHT22;2841;44.526;11.360;2023-01-28T18:01:16;5.80;74.10
5639;DHT22;2841;44.526;11.360;2023-01-28T18:03:42;5.70;74.00
5639;DHT22;2841;44.526;11.360;2023-01-28T18:06:09;5.70;74.10
5639;DHT22;2841;44.526;11.360;2023-01-28T18:08:36;5.70;74.10
5639;DHT22;2841;44.526;11.360;2023-01-28T18:11:05;5.60;74.00
5639;DHT22;2841;44.526;11.360;2023-01-28T18:13:33;5.60;74.00
5639;DHT22;2841;44.526;11.360;2023-01-28T18:16:02;5.50;74.00
5639;DHT22;2841;44.526;11.360;2023-01-28T18:18:29;5.50;74.10
5639;DHT22;2841;44.526;11.360;2023-01-28T18:20:56;5.50;74.40
5639;DHT22;2841;44.526;11.360;2023-01-28T18:23:23;5.50;74.40
5639;DHT22;2841;44.526;11.360;2023-01-28T18:25:54;5.50;74.30
5639;DHT22;2841;44.526;11.360;2023-01-28T18:28:21;5.40;74.30
5639;DHT22;2841;44.526;11.360;2023-01-28T18:30:48;5.30;74.30
5639;DHT22;2841;44.526;11.360;2023-01-28T18:33:17;5.30;74.40
5639;DHT22;2841;44.526;11.360;2023-01-28T18:35:44;5.20;74.40
5639;DHT22;2841;44.526;11.360;2023-01-28T18:38:11;5.20;74.50
5639;DHT22;2841;44.526;11.360;2023-01-28T18:40:41;5.10;74.50
5639;DHT22;2841;44.526;11.360;2023-01-28T18:43:08;5.00;74.50
5639;DHT22;2841;44.526;11.360;2023-01-28T18:45:36;5.00;74.70
5639;DHT22;2841;44.526;11.360;2023-01-28T18:48:03;5.00;74.80
5639;DHT22;2841;44.526;11.360;2023-01-28T18:50:31;4.90;74.70
5639;DHT22;2841;44.526;11.360;2023-01-28T18:52:58;4.90;74.80
5639;DHT22;2841;44.526;11.360;2023-01-28T18:55:25;4.80;74.70
5639;DHT22;2841;44.526;11.360;2023-01-28T18:57:52;4.80;74.80
5639;DHT22;2841;44.526;11.360;2023-01-28T19:00:20;4.80;74.90
5639;DHT22;2841;44.526;11.360;2023-01-28T19:02:47;4.70;74.90
5639;DHT22;2841;44.526;11.360;2023-01-28T19:05:14;4.70;75.00
5639;DHT22;2841;44.526;11.360;2023-01-28T19:07:43;4.70;75.00
5639;DHT22;2841;44.526;11.360;2023-01-28T19:10:10;4.70;75.10
5639;DHT22;2841;44.526;11.360;2023-01-28T19:12:36;4.60;75.10
5639;DHT22;2841;44.526;11.360;2023-01-28T19:15:03;4.60;75.10
5639;DHT22;2841;44.526;11.360;2023-01-28T19:17:30;4.50;75.10
5639;DHT22;2841;44.526;11.360;2023-01-28T19:19:57;4.50;75.20
5639;DHT22;2841;44.526;11.360;2023-01-28T19:22:24;4.50;75.20
5639;DHT22;2841;44.526;11.360;2023-01-28T19:24:52;4.40;75.20
5639;DHT22;2841;44.526;11.360;2023-01-28T19:27:19;4.40;75.40
5639;DHT22;2841;44.526;11.360;2023-01-28T19:29:46;4.40;75.50
5639;DHT22;2841;44.526;11.360;2023-01-28T19:32:12;4.30;75.50
5639;DHT22;2841;44.526;11.360;2023-01-28T19:34:39;4.30;75.50
5639;DHT22;2841;44.526;11.360;2023-01-28T19:37:06;4.30;75.50
5639;DHT22;2841;44.526;11.360;2023-01-28T19:39:33;4.30;75.60
5639;DHT22;2841;44.526;11.360;2023-01-28T19:42:02;4.30;75.60
5639;DHT22;2841;44.526;11.360;2023-01-28T19:44:28;4.20;75.60
5639;DHT22;2841;44.526;11.360;2023-01-28T19:46:57;4.20;75.70
5639;DHT22;2841;44.526;11.360;2023-01-28T19:49:23;4.20;75.70
5639;DHT22;2841;44.526;11.360;2023-01-28T19:51:50;4.20;75.80
5639;DHT22;2841;44.526;11.360;2023-01-28T19:54:17;4.10;75.80
5639;DHT22;2841;44.526;11.360;2023-01-28T19:56:43;4.10;75.90
5639;DHT22;2841;44.526;11.360;2023-01-28T19:59:12;4.00;76.00
5639;DHT22;2841;44.526;11.360;2023-01-28T20:01:40;4.00;76.10
5639;DHT22;2841;44.526;11.360;2023-01-28T20:04:07;4.00;76.10
5639;DHT22;2841;44.526;11.360;2023-01-28T20:06:34;4.00;76.10
5639;DHT22;2841;44.526;11.360;2023-01-28T20:09:02;4.00;76.20
5639;DHT22;2841;44.526;11.360;2023-01-28T20:11:30;4.00;76.20
5639;DHT22;2841;44.526;11.360;2023-01-28T20:13:57;3.90;76.10
5639;DHT22;2841;44.526;11.360;2023-01-28T20:16:26;3.90;76.30
5639;DHT22;2841;44.526;11.360;2023-01-28T20:18:54;3.90;76.40
5639;DHT22;2841;44.526;11.360;2023-01-28T20:21:20;3.90;76.40
5639;DHT22;2841;44.526;11.360;2023-01-28T20:23:48;3.80;76.40
5639;DHT22;2841;44.526;11.360;2023-01-28T20:26:17;3.80;76.50
5639;DHT22;2841;44.526;11.360;2023-01-28T20:28:45;3.80;76.50
5639;DHT22;2841;44.526;11.360;2023-01-28T20:31:12;3.80;76.50
5639;DHT22;2841;44.526;11.360;2023-01-28T20:33:40;3.80;76.60
5639;DHT22;2841;44.526;11.360;2023-01-28T20:36:08;3.80;76.90
5639;DHT22;2841;44.526;11.360;2023-01-28T20:38:35;3.80;76.70
5639;DHT22;2841;44.526;11.360;2023-01-28T20:41:05;3.80;76.80
5639;DHT22;2841;44.526;11.360;2023-01-28T20:43:32;3.70;76.70
5639;DHT22;2841;44.526;11.360;2023-01-28T20:46:02;3.70;76.70
5639;DHT22;2841;44.526;11.360;2023-01-28T20:48:29;3.70;76.80
5639;DHT22;2841;44.526;11.360;2023-01-28T20:50:57;3.70;76.80
5639;DHT22;2841;44.526;11.360;2023-01-28T20:53:29;3.70;76.90
5639;DHT22;2841;44.526;11.360;2023-01-28T20:55:56;3.60;76.90
5639;DHT22;2841;44.526;11.360;2023-01-28T20:58:23;3.60;76.90
5639;DHT22;2841;44.526;11.360;2023-01-28T21:00:50;3.60;77.00
5639;DHT22;2841;44.526;11.360;2023-01-28T21:03:17;3.60;77.10
5639;DHT22;2841;44.526;11.360;2023-01-28T21:05:44;3.60;77.10
5639;DHT22;2841;44.526;11.360;2023-01-28T21:08:12;3.60;77.20
5639;DHT22;2841;44.526;11.360;2023-01-28T21:10:39;3.60;77.20
5639;DHT22;2841;44.526;11.360;2023-01-28T21:13:06;3.60;77.40
5639;DHT22;2841;44.526;11.360;2023-01-28T21:15:33;3.60;77.40
5639;DHT22;2841;44.526;11.360;2023-01-28T21:18:00;3.60;77.40
5639;DHT22;2841;44.526;11.360;2023-01-28T21:20:27;3.60;77.40
5639;DHT22;2841;44.526;11.360;2023-01-28T21:22:54;3.60;77.50
5639;DHT22;2841;44.526;11.360;2023-01-28T21:25:22;3.60;77.50
5639;DHT22;2841;44.526;11.360;2023-01-28T21:27:49;3.60;77.50
5639;DHT22;2841;44.526;11.360;2023-01-28T21:30:16;3.60;77.50
5639;DHT22;2841;44.526;11.360;2023-01-28T21:32:44;3.60;77.60
5639;DHT22;2841;44.526;11.360;2023-01-28T21:35:10;3.60;77.70
5639;DHT22;2841;44.526;11.360;2023-01-28T21:37:37;3.60;77.90
5639;DHT22;2841;44.526;11.360;2023-01-28T21:40:05;3.60;77.90
5639;DHT22;2841;44.526;11.360;2023-01-28T21:42:34;3.60;77.90
5639;DHT22;2841;44.526;11.360;2023-01-28T21:45:01;3.60;77.90
5639;DHT22;2841;44.526;11.360;2023-01-28T21:47:28;3.60;78.00
5639;DHT22;2841;44.526;11.360;2023-01-28T21:49:55;3.70;78.10
5639;DHT22;2841;44.526;11.360;2023-01-28T21:52:22;3.60;78.00
5639;DHT22;2841;44.526;11.360;2023-01-28T21:54:49;3.60;78.00
5639;DHT22;2841;44.526;11.360;2023-01-28T21:57:16;3.60;78.10
5639;DHT22;2841;44.526;11.360;2023-01-28T21:59:45;3.70;78.30
5639;DHT22;2841;44.526;11.360;2023-01-28T22:02:11;3.70;78.40
5639;DHT22;2841;44.526;11.360;2023-01-28T22:04:38;3.70;78.30
5639;DHT22;2841;44.526;11.360;2023-01-28T22:07:06;3.70;78.30
5639;DHT22;2841;44.526;11.360;2023-01-28T22:09:33;3.70;78.40
5639;DHT22;2841;44.526;11.360;2023-01-28T22:12:00;3.60;78.40
5639;DHT22;2841;44.526;11.360;2023-01-28T22:14:27;3.60;78.50
5639;DHT22;2841;44.526;11.360;2023-01-28T22:16:56;3.60;78.50
5639;DHT22;2841;44.526;11.360;2023-01-28T22:19:22;3.50;78.50
5639;DHT22;2841;44.526;11.360;2023-01-28T22:21:49;3.50;78.60
5639;DHT22;2841;44.526;11.360;2023-01-28T22:24:17;3.40;78.60
5639;DHT22;2841;44.526;11.360;2023-01-28T22:26:44;3.40;78.70
5639;DHT22;2841;44.526;11.360;2023-01-28T22:29:12;3.30;78.80
5639;DHT22;2841;44.526;11.360;2023-01-28T22:31:39;3.30;79.00
5639;DHT22;2841;44.526;11.360;2023-01-28T22:34:07;3.20;78.90
5639;DHT22;2841;44.526;11.360;2023-01-28T22:36:34;3.10;79.00
5639;DHT22;2841;44.526;11.360;2023-01-28T22:39:02;3.10;79.10
5639;DHT22;2841;44.526;11.360;2023-01-28T22:41:29;3.10;79.20
5639;DHT22;2841;44.526;11.360;2023-01-28T22:43:56;3.10;79.30
5639;DHT22;2841;44.526;11.360;2023-01-28T22:46:25;3.10;79.30
5639;DHT22;2841;44.526;11.360;2023-01-28T22:48:52;3.10;79.30
5639;DHT22;2841;44.526;11.360;2023-01-28T22:51:21;3.10;79.40
5639;DHT22;2841;44.526;11.360;2023-01-28T22:53:49;3.10;79.40
5639;DHT22;2841;44.526;11.360;2023-01-28T22:56:16;3.10;79.50
5639;DHT22;2841;44.526;11.360;2023-01-28T22:58:43;3.10;79.60
5639;DHT22;2841;44.526;11.360;2023-01-28T23:01:10;3.10;79.60
5639;DHT22;2841;44.526;11.360;2023-01-28T23:03:42;3.10;79.60
5639;DHT22;2841;44.526;11.360;2023-01-28T23:06:09;3.10;79.70
5639;DHT22;2841;44.526;11.360;2023-01-28T23:08:37;3.10;79.70
5639;DHT22;2841;44.526;11.360;2023-01-28T23:11:04;3.00;79.60
5639;DHT22;2841;44.526;11.360;2023-01-28T23:13:39;3.00;79.70
5639;DHT22;2841;44.526;11.360;2023-01-28T23:16:20;3.00;79.80
5639;DHT22;2841;44.526;11.360;2023-01-28T23:19:04;3.00;79.90
5639;DHT22;2841;44.526;11.360;2023-01-28T23:21:48;3.00;79.90
5639;DHT22;2841;44.526;11.360;2023-01-28T23:24:34;2.90;79.80
5639;DHT22;2841;44.526;11.360;2023-01-28T23:27:01;2.90;80.00
5639;DHT22;2841;44.526;11.360;2023-01-28T23:29:28;2.90;80.00
5639;DHT22;2841;44.526;11.360;2023-01-28T23:31:56;2.80;79.90
5639;DHT22;2841;44.526;11.360;2023-01-28T23:34:26;2.80;80.00
5639;DHT22;2841;44.526;11.360;2023-01-28T23:36:53;2.80;80.10
5639;DHT22;2841;44.526;11.360;2023-01-28T23:39:20;2.70;80.10
5639;DHT22;2841;44.526;11.360;2023-01-28T23:41:48;2.70;80.40
5639;DHT22;2841;44.526;11.360;2023-01-28T23:44:15;2.70;80.50
5639;DHT22;2841;44.526;11.360;2023-01-28T23:46:42;2.70;81.30
5639;DHT22;2841;44.526;11.360;2023-01-28T23:49:09;2.70;81.00
5639;DHT22;2841;44.526;11.360;2023-01-28T23:51:36;2.80;81.50
5639;DHT22;2841;44.526;11.360;2023-01-28T23:54:03;2.80;81.30
5639;DHT22;2841;44.526;11.360;2023-01-28T23:56:30;2.90;81.30
5639;DHT22;2841;44.526;11.360;2023-01-28T23:58:58;2.90;81.30
